Aviation Digital Data Service (ADDS)

Output produced by METARs form (1517 UTC 21 May 2019)
found at http://www.aviationweather.gov/metar/data/
 
METAR text: MMOX 211445Z 21003KT 4SM BKN220 22/16 A3012 RMK SLP055 57002 977 8/008 HZY
Conditions at: MMOX (OAXACA/XOXOCOTLA, MX) observed 1445 UTC 21 May 2019
Temperature: 22.0°C (72°F)
Dewpoint: 16.0°C (61°F) [RH = 69%]
Pressure (altimeter): 30.12 inches Hg (1020.1 mb)
[Sea-level pressure: 1005.5 mb]
Winds: from the SSW (210 degrees) at 3 MPH (3 knots; 1.5 m/s)
Visibility: 4 miles ( 6 km)
Ceiling: 22000 feet AGL
Clouds: broken clouds at 22000 feet AGL
Weather: no significant weather observed at this time

METAR text: MMOX 211345Z 18002KT 3SM HZ BKN220 19/17 A3012 RMK 8/008 HZY
Conditions at: MMOX (OAXACA/XOXOCOTLA, MX) observed 1345 UTC 21 May 2019
Temperature: 19.0°C (66°F)
Dewpoint: 17.0°C (63°F) [RH = 88%]
Pressure (altimeter): 30.12 inches Hg (1020.1 mb)
Winds: from the S (180 degrees) at 2 MPH (2 knots; 1.0 m/s)
Visibility: 3 miles ( 5 km)
Ceiling: 22000 feet AGL
Clouds: broken clouds at 22000 feet AGL
Weather: HZ  (haze)

METAR text: MMOX 211246Z 24002KT 3SM HZ OVC220 17/15 A3012 RMK 8/007 HZY
Conditions at: MMOX (OAXACA/XOXOCOTLA, MX) observed 1246 UTC 21 May 2019
Temperature: 17.0°C (63°F)
Dewpoint: 15.0°C (59°F) [RH = 88%]
Pressure (altimeter): 30.12 inches Hg (1020.1 mb)
Winds: from the WSW (240 degrees) at 2 MPH (2 knots; 1.0 m/s)
Visibility: 3 miles ( 5 km)
Ceiling: 22000 feet AGL
Clouds: overcast cloud deck at 22000 feet AGL
Weather: HZ  (haze)

METAR text: MMOX 211146Z 29002KT 5SM OVC220 17/15 A3011 RMK SLP058 5//// 964 8/008 HZY
Conditions at: MMOX (OAXACA/XOXOCOTLA, MX) observed 1146 UTC 21 May 2019
Temperature: 17.0°C (63°F)
Dewpoint: 15.0°C (59°F) [RH = 88%]
Pressure (altimeter): 30.11 inches Hg (1019.7 mb)
[Sea-level pressure: 1005.8 mb]
Winds: from the WNW (290 degrees) at 2 MPH (2 knots; 1.0 m/s)
Visibility: 5 miles ( 8 km)
Ceiling: 22000 feet AGL
Clouds: overcast cloud deck at 22000 feet AGL
Weather: no significant weather observed at this time

METAR text: MMOX 211105Z RTD 19003KT 5SM BKN220 17/16 A3011 RMK 8/008 HZY RTS
Conditions at: MMOX (OAXACA/XOXOCOTLA, MX) observed 1105 UTC 21 May 2019
Temperature: 17.0°C (63°F)
Dewpoint: 16.0°C (61°F) [RH = 94%]
Pressure (altimeter): 30.11 inches Hg (1019.7 mb)
Winds: from the S (190 degrees) at 3 MPH (3 knots; 1.5 m/s)
Visibility: 5 miles ( 8 km)
Ceiling: 22000 feet AGL
Clouds: broken clouds at 22000 feet AGL
Weather: no significant weather observed at this time

METAR text: MMOX 210143Z 17012KT 7SM SCT120 25/14 A3006 RMK 8/020
Conditions at: MMOX (OAXACA/XOXOCOTLA, MX) observed 0143 UTC 21 May 2019
Temperature: 25.0°C (77°F)
Dewpoint: 14.0°C (57°F) [RH = 50%]
Pressure (altimeter): 30.06 inches Hg (1018.0 mb)
Winds: from the S (170 degrees) at 14 MPH (12 knots; 6.2 m/s)
Visibility: 7 miles (11 km)
Ceiling: at least 12,000 feet AGL
Clouds: scattered clouds at 12000 feet AGL
Weather: no significant weather observed at this time

METAR text: MMOX 210042Z 10013KT 5SM SCT040 BKN120 28/10 A3003 RMK 8/430 FUHZ
Conditions at: MMOX (OAXACA/XOXOCOTLA, MX) observed 0042 UTC 21 May 2019
Temperature: 28.0°C (82°F)
Dewpoint: 10.0°C (50°F) [RH = 32%]
Pressure (altimeter): 30.03 inches Hg (1017.0 mb)
Winds: from the E (100 degrees) at 15 MPH (13 knots; 6.7 m/s)
Visibility: 5 miles ( 8 km)
Ceiling: 12000 feet AGL
Clouds: scattered clouds at 4000 feet AGL
broken clouds at 12000 feet AGL
Weather: no significant weather observed at this time

METAR text: MMOX 202346Z 14012KT 10SM SCT040 29/08 A3001 RMK SLP046 57007 960 8/400
Conditions at: MMOX (OAXACA/XOXOCOTLA, MX) observed 2346 UTC 20 May 2019
Temperature: 29.0°C (84°F)
Dewpoint: 8.0°C (46°F) [RH = 27%]
Pressure (altimeter): 30.01 inches Hg (1016.3 mb)
[Sea-level pressure: 1004.6 mb]
Winds: from the SE (140 degrees) at 14 MPH (12 knots; 6.2 m/s)
Visibility: 10 or more miles (16+ km)
Ceiling: at least 12,000 feet AGL
Clouds: scattered clouds at 4000 feet AGL
Weather: no significant weather observed at this time

METAR text: MMOX 202245Z 17006KT 10SM SCT040 30/07 A3001 RMK 8/400
Conditions at: MMOX (OAXACA/XOXOCOTLA, MX) observed 2245 UTC 20 May 2019
Temperature: 30.0°C (86°F)
Dewpoint: 7.0°C (45°F) [RH = 24%]
Pressure (altimeter): 30.01 inches Hg (1016.3 mb)
Winds: from the S (170 degrees) at 7 MPH (6 knots; 3.1 m/s)
Visibility: 10 or more miles (16+ km)
Ceiling: at least 12,000 feet AGL
Clouds: scattered clouds at 4000 feet AGL
Weather: no significant weather observed at this time

METAR text: MMOX 202142Z 17004KT 10SM SCT040 30/06 A3003 RMK 8/400
Conditions at: MMOX (OAXACA/XOXOCOTLA, MX) observed 2142 UTC 20 May 2019
Temperature: 30.0°C (86°F)
Dewpoint: 6.0°C (43°F) [RH = 22%]
Pressure (altimeter): 30.03 inches Hg (1017.0 mb)
Winds: from the S (170 degrees) at 5 MPH (4 knots; 2.1 m/s)
Visibility: 10 or more miles (16+ km)
Ceiling: at least 12,000 feet AGL
Clouds: scattered clouds at 4000 feet AGL
Weather: no significant weather observed at this time

METAR text: MMOX 202051Z 19007KT 10SM SCT040 30/08 A3005 RMK SLP040 57026 907 8/400
Conditions at: MMOX (OAXACA/XOXOCOTLA, MX) observed 2051 UTC 20 May 2019
Temperature: 30.0°C (86°F)
Dewpoint: 8.0°C (46°F) [RH = 25%]
Pressure (altimeter): 30.05 inches Hg (1017.7 mb)
[Sea-level pressure: 1004.0 mb]
Winds: from the S (190 degrees) at 8 MPH (7 knots; 3.6 m/s)
Visibility: 10 or more miles (16+ km)
Ceiling: at least 12,000 feet AGL
Clouds: scattered clouds at 4000 feet AGL
Weather: no significant weather observed at this time

METAR text: MMOX 201946Z 22004KT 7SM SCT040 29/06 A3009 RMK 8/400 HZY
Conditions at: MMOX (OAXACA/XOXOCOTLA, MX) observed 1946 UTC 20 May 2019
Temperature: 29.0°C (84°F)
Dewpoint: 6.0°C (43°F) [RH = 23%]
Pressure (altimeter): 30.09 inches Hg (1019.0 mb)
Winds: from the SW (220 degrees) at 5 MPH (4 knots; 2.1 m/s)
Visibility: 7 miles (11 km)
Ceiling: at least 12,000 feet AGL
Clouds: scattered clouds at 4000 feet AGL
Weather: no significant weather observed at this time

METAR text: MMOX 201840Z 20010KT 7SM SKC 28/04 A3012 RMK HZY/CI
Conditions at: MMOX (OAXACA/XOXOCOTLA, MX) observed 1840 UTC 20 May 2019
Temperature: 28.0°C (82°F)
Dewpoint: 4.0°C (39°F) [RH = 22%]
Pressure (altimeter): 30.12 inches Hg (1020.1 mb)
Winds: from the SSW (200 degrees) at 12 MPH (10 knots; 5.1 m/s)
Visibility: 7 miles (11 km)
Ceiling: at least 12,000 feet AGL
Clouds: clear skies
Weather: no significant weather observed at this time

METAR text: MMOX 201745Z 11003KT 7SM SKC 27/04 A3014 RMK SLP073 57016 906 HZY
Conditions at: MMOX (OAXACA/XOXOCOTLA, MX) observed 1745 UTC 20 May 2019
Temperature: 27.0°C (81°F)
Dewpoint: 4.0°C (39°F) [RH = 23%]
Pressure (altimeter): 30.14 inches Hg (1020.7 mb)
[Sea-level pressure: 1007.3 mb]
Winds: from the ESE (110 degrees) at 3 MPH (3 knots; 1.5 m/s)
Visibility: 7 miles (11 km)
Ceiling: at least 12,000 feet AGL
Clouds: clear skies
Weather: no significant weather observed at this time

METAR text: MMOX 201641Z 30003KT 7SM SKC 26/05 A3017 RMK HZY
Conditions at: MMOX (OAXACA/XOXOCOTLA, MX) observed 1641 UTC 20 May 2019
Temperature: 26.0°C (79°F)
Dewpoint: 5.0°C (41°F) [RH = 26%]
Pressure (altimeter): 30.17 inches Hg (1021.8 mb)
Winds: from the WNW (300 degrees) at 3 MPH (3 knots; 1.5 m/s)
Visibility: 7 miles (11 km)
Ceiling: at least 12,000 feet AGL
Clouds: clear skies
Weather: no significant weather observed at this time

METAR text: MMOX 201555Z 31002KT 5SM SKC 24/07 A3019 RMK HZY
Conditions at: MMOX (OAXACA/XOXOCOTLA, MX) observed 1555 UTC 20 May 2019
Temperature: 24.0°C (75°F)
Dewpoint: 7.0°C (45°F) [RH = 34%]
Pressure (altimeter): 30.19 inches Hg (1022.4 mb)
Winds: from the NW (310 degrees) at 2 MPH (2 knots; 1.0 m/s)
Visibility: 5 miles ( 8 km)
Ceiling: at least 12,000 feet AGL
Clouds: clear skies
Weather: no significant weather observed at this time

METAR text: MMOX 201446Z 04003KT 5SM SKC 21/09 A3019 RMK SLP100 52011 920 HZY
Conditions at: MMOX (OAXACA/XOXOCOTLA, MX) observed 1446 UTC 20 May 2019
Temperature: 21.0°C (70°F)
Dewpoint: 9.0°C (48°F) [RH = 46%]
Pressure (altimeter): 30.19 inches Hg (1022.4 mb)
[Sea-level pressure: 1010.0 mb]
Winds: from the NE (40 degrees) at 3 MPH (3 knots; 1.5 m/s)
Visibility: 5 miles ( 8 km)
Ceiling: at least 12,000 feet AGL
Clouds: clear skies
Weather: no significant weather observed at this time

METAR text: MMOX 201344Z 35008KT 4SM SKC 17/08 A3019 RMK HZY/CI
Conditions at: MMOX (OAXACA/XOXOCOTLA, MX) observed 1344 UTC 20 May 2019
Temperature: 17.0°C (63°F)
Dewpoint: 8.0°C (46°F) [RH = 55%]
Pressure (altimeter): 30.19 inches Hg (1022.4 mb)
Winds: from the N (350 degrees) at 9 MPH (8 knots; 4.1 m/s)
Visibility: 4 miles ( 6 km)
Ceiling: at least 12,000 feet AGL
Clouds: clear skies
Weather: no significant weather observed at this time

METAR text: MMOX 201241Z 35007KT 4SM SKC 14/08 A3017 RMK HZY/CI
Conditions at: MMOX (OAXACA/XOXOCOTLA, MX) observed 1241 UTC 20 May 2019
Temperature: 14.0°C (57°F)
Dewpoint: 8.0°C (46°F) [RH = 67%]
Pressure (altimeter): 30.17 inches Hg (1021.8 mb)
Winds: from the N (350 degrees) at 8 MPH (7 knots; 3.6 m/s)
Visibility: 4 miles ( 6 km)
Ceiling: at least 12,000 feet AGL
Clouds: clear skies
Weather: no significant weather observed at this time

METAR text: MMOX 201145Z 36006KT 4SM SKC 13/07 A3016 RMK SLP092 5//// 902 HZY
Conditions at: MMOX (OAXACA/XOXOCOTLA, MX) observed 1145 UTC 20 May 2019
Temperature: 13.0°C (55°F)
Dewpoint: 7.0°C (45°F) [RH = 67%]
Pressure (altimeter): 30.16 inches Hg (1021.4 mb)
[Sea-level pressure: 1009.2 mb]
Winds: from the N (360 degrees) at 7 MPH (6 knots; 3.1 m/s)
Visibility: 4 miles ( 6 km)
Ceiling: at least 12,000 feet AGL
Clouds: clear skies
Weather: no significant weather observed at this time

METAR text: MMOX 201109Z RTD 01006KT 7SM SKC 13/08 A3015 RMK HZY RTS
Conditions at: MMOX (OAXACA/XOXOCOTLA, MX) observed 1109 UTC 20 May 2019
Temperature: 13.0°C (55°F)
Dewpoint: 8.0°C (46°F) [RH = 72%]
Pressure (altimeter): 30.15 inches Hg (1021.1 mb)
Winds: from the N (10 degrees) at 7 MPH (6 knots; 3.1 m/s)
Visibility: 7 miles (11 km)
Ceiling: at least 12,000 feet AGL
Clouds: clear skies
Weather: no significant weather observed at this time

Forecast for: AMD
Text: TAF AMD MMOX 211307Z 2113/2206 00000KT 3SM HZ OVC220
Forecast period: 1300 to 1700 UTC 21 May 2019
Forecast type: FROM: standard forecast or significant change
Winds: calm
Visibility: 3 miles (5 km)
Ceiling: 22000 feet AGL
Clouds: overcast cloud deck at 22000 feet AGL
Weather: HZ  (haze)
Text: FM211700 28006KT 5SM HZ SCT030 BKN220
Forecast period: 1700 to 2100 UTC 21 May 2019
Forecast type: FROM: standard forecast or significant change
Winds: from the W (280 degrees) at 7 MPH (6 knots; 3.1 m/s)
Visibility: 5 miles (8 km)
Ceiling: 22000 feet AGL
Clouds: scattered clouds at 3000 feet AGL
broken clouds at 22000 feet AGL
Weather: HZ  (haze)
Text: FM212100 07012KT 6SM HZ SCT030CB BKN090
Forecast period: 2100 UTC 21 May 2019 to 0300 UTC 22 May 2019
Forecast type: FROM: standard forecast or significant change
Winds: from the ENE (70 degrees) at 14 MPH (12 knots; 6.2 m/s)
Visibility: 6 miles (10 km)
Ceiling: 9000 feet AGL
Clouds: scattered clouds at 3000 feet AGL
broken clouds at 9000 feet AGL
Weather: HZ  (haze)
Text: PROB40 2122/2202 VC RA
Forecast period: 2200 UTC 21 May 2019 to 0200 UTC 22 May 2019
Forecast type: PROBABLE: 40 percent likelihood of the following during this time
Visibility: missing
Ceiling: unknown
Clouds: missing
Weather: VC RA  (vicinity, moderate rain)
Text: FM220300 12006KT 6SM HZ SCT030 BKN090
Forecast period: 0300 to 0600 UTC 22 May 2019
Forecast type: FROM: standard forecast or significant change
Winds: from the ESE (120 degrees) at 7 MPH (6 knots; 3.1 m/s)
Visibility: 6 miles (10 km)
Ceiling: 9000 feet AGL
Clouds: scattered clouds at 3000 feet AGL
broken clouds at 9000 feet AGL
Weather: HZ  (haze)